sensor_id;sensor_type;location;lat;lon;timestamp;temperature;humidity
4487;DHT22;2256;48.740;9.106;2024-01-07T00:02:04;4.60;99.90
4487;DHT22;2256;48.740;9.106;2024-01-07T00:04:32;4.60;99.90
4487;DHT22;2256;48.740;9.106;2024-01-07T00:07:00;4.60;99.90
4487;DHT22;2256;48.740;9.106;2024-01-07T00:09:26;4.50;99.90
4487;DHT22;2256;48.740;9.106;2024-01-07T00:11:53;4.50;99.90
4487;DHT22;2256;48.740;9.106;2024-01-07T00:14:20;4.40;99.90
4487;DHT22;2256;48.740;9.106;2024-01-07T00:16:48;4.40;99.90
4487;DHT22;2256;48.740;9.106;2024-01-07T00:19:15;4.40;99.90
4487;DHT22;2256;48.740;9.106;2024-01-07T00:21:43;4.50;99.90
4487;DHT22;2256;48.740;9.106;2024-01-07T00:24:10;4.50;99.90
4487;DHT22;2256;48.740;9.106;2024-01-07T00:26:37;4.50;99.90
4487;DHT22;2256;48.740;9.106;2024-01-07T00:29:04;4.50;99.90
4487;DHT22;2256;48.740;9.106;2024-01-07T00:31:31;4.50;99.90
4487;DHT22;2256;48.740;9.106;2024-01-07T00:33:58;4.50;99.90
4487;DHT22;2256;48.740;9.106;2024-01-07T00:36:24;4.50;99.90
4487;DHT22;2256;48.740;9.106;2024-01-07T00:38:52;4.50;99.90
4487;DHT22;2256;48.740;9.106;2024-01-07T00:41:19;4.50;99.90
4487;DHT22;2256;48.740;9.106;2024-01-07T00:43:46;4.50;99.90
4487;DHT22;2256;48.740;9.106;2024-01-07T00:46:13;4.60;99.90
4487;DHT22;2256;48.740;9.106;2024-01-07T00:48:40;4.70;99.90
4487;DHT22;2256;48.740;9.106;2024-01-07T00:51:06;4.50;99.90
4487;DHT22;2256;48.740;9.106;2024-01-07T00:53:33;4.60;99.90
4487;DHT22;2256;48.740;9.106;2024-01-07T00:56:01;4.50;99.90
4487;DHT22;2256;48.740;9.106;2024-01-07T00:58:29;4.50;99.90
4487;DHT22;2256;48.740;9.106;2024-01-07T01:00:56;4.60;99.90
4487;DHT22;2256;48.740;9.106;2024-01-07T01:03:23;4.50;99.90
4487;DHT22;2256;48.740;9.106;2024-01-07T01:05:49;4.50;99.90
4487;DHT22;2256;48.740;9.106;2024-01-07T01:08:16;4.50;99.90
4487;DHT22;2256;48.740;9.106;2024-01-07T01:10:43;4.40;99.90
4487;DHT22;2256;48.740;9.106;2024-01-07T01:13:11;4.50;99.90
4487;DHT22;2256;48.740;9.106;2024-01-07T01:15:38;4.60;99.90
4487;DHT22;2256;48.740;9.106;2024-01-07T01:18:05;4.50;99.90
4487;DHT22;2256;48.740;9.106;2024-01-07T01:20:32;4.50;99.90
4487;DHT22;2256;48.740;9.106;2024-01-07T01:22:59;4.40;99.90
4487;DHT22;2256;48.740;9.106;2024-01-07T01:25:26;4.40;99.90
4487;DHT22;2256;48.740;9.106;2024-01-07T01:27:52;4.50;99.90
4487;DHT22;2256;48.740;9.106;2024-01-07T01:30:20;4.40;99.90
4487;DHT22;2256;48.740;9.106;2024-01-07T01:32:47;4.40;99.90
4487;DHT22;2256;48.740;9.106;2024-01-07T01:35:15;4.40;99.90
4487;DHT22;2256;48.740;9.106;2024-01-07T01:37:42;4.40;99.90
4487;DHT22;2256;48.740;9.106;2024-01-07T01:40:10;4.30;99.90
4487;DHT22;2256;48.740;9.106;2024-01-07T01:42:37;4.30;99.90
4487;DHT22;2256;48.740;9.106;2024-01-07T01:45:04;4.30;99.90
4487;DHT22;2256;48.740;9.106;2024-01-07T01:47:32;4.30;99.90
4487;DHT22;2256;48.740;9.106;2024-01-07T01:49:59;4.30;99.90
4487;DHT22;2256;48.740;9.106;2024-01-07T01:52:27;4.20;99.90
4487;DHT22;2256;48.740;9.106;2024-01-07T01:54:54;4.20;99.90
4487;DHT22;2256;48.740;9.106;2024-01-07T01:57:22;4.20;99.90
4487;DHT22;2256;48.740;9.106;2024-01-07T01:59:51;4.20;99.90
4487;DHT22;2256;48.740;9.106;2024-01-07T02:02:18;4.10;99.90
4487;DHT22;2256;48.740;9.106;2024-01-07T02:04:47;4.10;99.90
4487;DHT22;2256;48.740;9.106;2024-01-07T02:07:14;4.20;99.90
4487;DHT22;2256;48.740;9.106;2024-01-07T02:09:40;4.20;99.90
4487;DHT22;2256;48.740;9.106;2024-01-07T02:12:07;4.20;99.90
4487;DHT22;2256;48.740;9.106;2024-01-07T02:14:37;4.20;99.90
4487;DHT22;2256;48.740;9.106;2024-01-07T02:17:04;4.20;99.90
4487;DHT22;2256;48.740;9.106;2024-01-07T02:19:31;4.30;99.90
4487;DHT22;2256;48.740;9.106;2024-01-07T02:21:59;4.20;99.90
4487;DHT22;2256;48.740;9.106;2024-01-07T02:24:28;4.10;99.90
4487;DHT22;2256;48.740;9.106;2024-01-07T02:26:55;4.20;99.90
4487;DHT22;2256;48.740;9.106;2024-01-07T02:29:22;4.20;99.90
4487;DHT22;2256;48.740;9.106;2024-01-07T02:31:49;4.20;99.90
4487;DHT22;2256;48.740;9.106;2024-01-07T02:34:16;4.20;99.90
4487;DHT22;2256;48.740;9.106;2024-01-07T02:36:43;4.20;99.90
4487;DHT22;2256;48.740;9.106;2024-01-07T02:39:09;4.20;99.90
4487;DHT22;2256;48.740;9.106;2024-01-07T02:41:38;4.10;99.90
4487;DHT22;2256;48.740;9.106;2024-01-07T02:44:04;4.10;99.90
4487;DHT22;2256;48.740;9.106;2024-01-07T02:46:31;4.00;99.90
4487;DHT22;2256;48.740;9.106;2024-01-07T02:48:58;4.00;99.90
4487;DHT22;2256;48.740;9.106;2024-01-07T02:51:25;4.10;99.90
4487;DHT22;2256;48.740;9.106;2024-01-07T02:53:52;4.10;99.90
4487;DHT22;2256;48.740;9.106;2024-01-07T02:56:19;4.20;99.90
4487;DHT22;2256;48.740;9.106;2024-01-07T02:58:48;4.20;99.90
4487;DHT22;2256;48.740;9.106;2024-01-07T03:01:14;4.10;99.90
4487;DHT22;2256;48.740;9.106;2024-01-07T03:03:41;4.10;99.90
4487;DHT22;2256;48.740;9.106;2024-01-07T03:06:08;4.10;99.90
4487;DHT22;2256;48.740;9.106;2024-01-07T03:08:36;4.10;99.90
4487;DHT22;2256;48.740;9.106;2024-01-07T03:11:04;4.00;99.90
4487;DHT22;2256;48.740;9.106;2024-01-07T03:13:32;4.00;99.90
4487;DHT22;2256;48.740;9.106;2024-01-07T03:16:00;3.90;99.90
4487;DHT22;2256;48.740;9.106;2024-01-07T03:18:27;3.80;99.90
4487;DHT22;2256;48.740;9.106;2024-01-07T03:20:54;3.80;99.90
4487;DHT22;2256;48.740;9.106;2024-01-07T03:23:20;3.90;99.90
4487;DHT22;2256;48.740;9.106;2024-01-07T03:25:47;3.90;99.90
4487;DHT22;2256;48.740;9.106;2024-01-07T03:28:14;3.80;99.90
4487;DHT22;2256;48.740;9.106;2024-01-07T03:30:42;3.80;99.90
4487;DHT22;2256;48.740;9.106;2024-01-07T03:33:10;3.80;99.90
4487;DHT22;2256;48.740;9.106;2024-01-07T03:35:37;3.80;99.90
4487;DHT22;2256;48.740;9.106;2024-01-07T03:38:04;3.80;99.90
4487;DHT22;2256;48.740;9.106;2024-01-07T03:40:33;3.80;99.90
4487;DHT22;2256;48.740;9.106;2024-01-07T03:42:59;3.70;99.90
4487;DHT22;2256;48.740;9.106;2024-01-07T03:45:27;3.80;99.90
4487;DHT22;2256;48.740;9.106;2024-01-07T03:47:54;3.80;99.90
4487;DHT22;2256;48.740;9.106;2024-01-07T03:50:22;3.80;99.90
4487;DHT22;2256;48.740;9.106;2024-01-07T03:52:51;3.80;99.90
4487;DHT22;2256;48.740;9.106;2024-01-07T03:55:18;3.80;99.90
4487;DHT22;2256;48.740;9.106;2024-01-07T03:57:44;3.70;99.90
4487;DHT22;2256;48.740;9.106;2024-01-07T04:00:12;3.80;99.90
4487;DHT22;2256;48.740;9.106;2024-01-07T04:02:39;3.80;99.90
4487;DHT22;2256;48.740;9.106;2024-01-07T04:05:06;3.90;99.90
4487;DHT22;2256;48.740;9.106;2024-01-07T04:07:36;3.80;99.90
4487;DHT22;2256;48.740;9.106;2024-01-07T04:10:03;3.70;99.90
4487;DHT22;2256;48.740;9.106;2024-01-07T04:12:30;3.70;99.90
4487;DHT22;2256;48.740;9.106;2024-01-07T04:14:56;3.70;99.90
4487;DHT22;2256;48.740;9.106;2024-01-07T04:17:24;3.60;99.90
4487;DHT22;2256;48.740;9.106;2024-01-07T04:19:52;3.60;99.90
4487;DHT22;2256;48.740;9.106;2024-01-07T04:22:19;3.60;99.90
4487;DHT22;2256;48.740;9.106;2024-01-07T04:24:47;3.50;99.90
4487;DHT22;2256;48.740;9.106;2024-01-07T04:27:13;3.60;99.90
4487;DHT22;2256;48.740;9.106;2024-01-07T04:29:40;3.60;99.90
4487;DHT22;2256;48.740;9.106;2024-01-07T04:32:07;3.70;99.90
4487;DHT22;2256;48.740;9.106;2024-01-07T04:34:37;3.60;99.90
4487;DHT22;2256;48.740;9.106;2024-01-07T04:37:05;3.70;99.90
4487;DHT22;2256;48.740;9.106;2024-01-07T04:39:32;3.50;99.90
4487;DHT22;2256;48.740;9.106;2024-01-07T04:42:00;3.60;99.90
4487;DHT22;2256;48.740;9.106;2024-01-07T04:44:27;3.60;99.90
4487;DHT22;2256;48.740;9.106;2024-01-07T04:46:54;3.60;99.90
4487;DHT22;2256;48.740;9.106;2024-01-07T04:49:21;3.60;99.90
4487;DHT22;2256;48.740;9.106;2024-01-07T04:51:47;3.50;99.90
4487;DHT22;2256;48.740;9.106;2024-01-07T04:54:14;3.50;99.90
4487;DHT22;2256;48.740;9.106;2024-01-07T04:56:41;3.50;99.90
4487;DHT22;2256;48.740;9.106;2024-01-07T04:59:09;3.60;99.90
4487;DHT22;2256;48.740;9.106;2024-01-07T05:01:36;3.50;99.90
4487;DHT22;2256;48.740;9.106;2024-01-07T05:04:03;3.40;99.90
4487;DHT22;2256;48.740;9.106;2024-01-07T05:06:30;3.40;99.90
4487;DHT22;2256;48.740;9.106;2024-01-07T05:08:57;3.50;99.90
4487;DHT22;2256;48.740;9.106;2024-01-07T05:11:25;3.50;99.90
4487;DHT22;2256;48.740;9.106;2024-01-07T05:13:52;3.60;99.90
4487;DHT22;2256;48.740;9.106;2024-01-07T05:16:20;3.50;99.90
4487;DHT22;2256;48.740;9.106;2024-01-07T05:18:47;3.50;99.90
4487;DHT22;2256;48.740;9.106;2024-01-07T05:21:14;3.40;99.90
4487;DHT22;2256;48.740;9.106;2024-01-07T05:23:41;3.40;99.90
4487;DHT22;2256;48.740;9.106;2024-01-07T05:26:08;3.40;99.90
4487;DHT22;2256;48.740;9.106;2024-01-07T05:28:36;3.40;99.90
4487;DHT22;2256;48.740;9.106;2024-01-07T05:31:03;3.40;99.90
4487;DHT22;2256;48.740;9.106;2024-01-07T05:33:31;3.40;99.90
4487;DHT22;2256;48.740;9.106;2024-01-07T05:35:58;3.40;99.90
4487;DHT22;2256;48.740;9.106;2024-01-07T05:38:25;3.40;99.90
4487;DHT22;2256;48.740;9.106;2024-01-07T05:40:52;3.40;99.90
4487;DHT22;2256;48.740;9.106;2024-01-07T05:43:18;3.50;99.90
4487;DHT22;2256;48.740;9.106;2024-01-07T05:45:45;3.50;99.90
4487;DHT22;2256;48.740;9.106;2024-01-07T05:48:13;3.50;99.90
4487;DHT22;2256;48.740;9.106;2024-01-07T05:50:41;3.40;99.90
4487;DHT22;2256;48.740;9.106;2024-01-07T05:53:08;3.50;99.90
4487;DHT22;2256;48.740;9.106;2024-01-07T05:55:35;3.50;99.90
4487;DHT22;2256;48.740;9.106;2024-01-07T05:58:02;3.60;99.90
4487;DHT22;2256;48.740;9.106;2024-01-07T06:00:28;3.40;99.90
4487;DHT22;2256;48.740;9.106;2024-01-07T06:02:55;3.40;99.90
4487;DHT22;2256;48.740;9.106;2024-01-07T06:05:22;3.40;99.90
4487;DHT22;2256;48.740;9.106;2024-01-07T06:07:51;3.50;99.90
4487;DHT22;2256;48.740;9.106;2024-01-07T06:10:18;3.40;99.90
4487;DHT22;2256;48.740;9.106;2024-01-07T06:12:45;3.30;99.90
4487;DHT22;2256;48.740;9.106;2024-01-07T06:15:11;3.30;99.90
4487;DHT22;2256;48.740;9.106;2024-01-07T06:17:38;3.30;99.90
4487;DHT22;2256;48.740;9.106;2024-01-07T06:20:06;3.40;99.90
4487;DHT22;2256;48.740;9.106;2024-01-07T06:22:33;3.30;99.90
4487;DHT22;2256;48.740;9.106;2024-01-07T06:25:01;3.30;99.90
4487;DHT22;2256;48.740;9.106;2024-01-07T06:27:28;3.30;99.90
4487;DHT22;2256;48.740;9.106;2024-01-07T06:29:55;3.20;99.90
4487;DHT22;2256;48.740;9.106;2024-01-07T06:32:22;3.30;99.90
4487;DHT22;2256;48.740;9.106;2024-01-07T06:34:50;3.40;99.90
4487;DHT22;2256;48.740;9.106;2024-01-07T06:37:18;3.30;99.90
4487;DHT22;2256;48.740;9.106;2024-01-07T06:39:45;3.20;99.90
4487;DHT22;2256;48.740;9.106;2024-01-07T06:42:14;3.20;99.90
4487;DHT22;2256;48.740;9.106;2024-01-07T06:44:41;3.10;99.90
4487;DHT22;2256;48.740;9.106;2024-01-07T06:47:07;3.10;99.90
4487;DHT22;2256;48.740;9.106;2024-01-07T06:49:34;3.20;99.90
4487;DHT22;2256;48.740;9.106;2024-01-07T06:52:01;3.20;99.90
4487;DHT22;2256;48.740;9.106;2024-01-07T06:54:27;3.20;99.90
4487;DHT22;2256;48.740;9.106;2024-01-07T06:56:54;3.20;99.90
4487;DHT22;2256;48.740;9.106;2024-01-07T06:59:22;3.10;99.90
4487;DHT22;2256;48.740;9.106;2024-01-07T07:01:49;3.10;99.90
4487;DHT22;2256;48.740;9.106;2024-01-07T07:04:16;3.00;99.90
4487;DHT22;2256;48.740;9.106;2024-01-07T07:06:44;3.00;99.90
4487;DHT22;2256;48.740;9.106;2024-01-07T07:09:10;3.00;99.90
4487;DHT22;2256;48.740;9.106;2024-01-07T07:11:38;3.10;99.90
4487;DHT22;2256;48.740;9.106;2024-01-07T07:14:05;3.10;99.90
4487;DHT22;2256;48.740;9.106;2024-01-07T07:16:33;3.10;99.90
4487;DHT22;2256;48.740;9.106;2024-01-07T07:19:00;3.00;99.90
4487;DHT22;2256;48.740;9.106;2024-01-07T07:21:26;3.00;99.90
4487;DHT22;2256;48.740;9.106;2024-01-07T07:23:53;2.90;99.90
4487;DHT22;2256;48.740;9.106;2024-01-07T07:26:20;2.90;99.90
4487;DHT22;2256;48.740;9.106;2024-01-07T07:28:47;2.90;99.90
4487;DHT22;2256;48.740;9.106;2024-01-07T07:31:14;2.90;99.90
4487;DHT22;2256;48.740;9.106;2024-01-07T07:33:42;2.90;99.90
4487;DHT22;2256;48.740;9.106;2024-01-07T07:36:09;2.90;99.90
4487;DHT22;2256;48.740;9.106;2024-01-07T07:38:35;2.80;99.90
4487;DHT22;2256;48.740;9.106;2024-01-07T07:41:02;2.80;99.90
4487;DHT22;2256;48.740;9.106;2024-01-07T07:43:30;2.80;99.90
4487;DHT22;2256;48.740;9.106;2024-01-07T07:45:57;2.80;99.90
4487;DHT22;2256;48.740;9.106;2024-01-07T07:48:25;2.80;99.90
4487;DHT22;2256;48.740;9.106;2024-01-07T07:50:54;2.70;99.90
4487;DHT22;2256;48.740;9.106;2024-01-07T07:53:21;2.70;99.90
4487;DHT22;2256;48.740;9.106;2024-01-07T07:55:49;2.70;99.90
4487;DHT22;2256;48.740;9.106;2024-01-07T07:58:16;2.60;99.90
4487;DHT22;2256;48.740;9.106;2024-01-07T08:00:43;2.50;99.90
4487;DHT22;2256;48.740;9.106;2024-01-07T08:03:11;2.50;99.90
4487;DHT22;2256;48.740;9.106;2024-01-07T08:05:38;2.50;99.90
4487;DHT22;2256;48.740;9.106;2024-01-07T08:08:09;2.50;99.90
4487;DHT22;2256;48.740;9.106;2024-01-07T08:10:36;2.40;99.90
4487;DHT22;2256;48.740;9.106;2024-01-07T08:13:05;2.40;99.90
4487;DHT22;2256;48.740;9.106;2024-01-07T08:15:32;2.30;99.90
4487;DHT22;2256;48.740;9.106;2024-01-07T08:17:59;2.20;99.90
4487;DHT22;2256;48.740;9.106;2024-01-07T08:20:27;2.20;99.90
4487;DHT22;2256;48.740;9.106;2024-01-07T08:22:54;2.20;99.90
4487;DHT22;2256;48.740;9.106;2024-01-07T08:25:23;2.20;99.90
4487;DHT22;2256;48.740;9.106;2024-01-07T08:27:49;2.20;99.90
4487;DHT22;2256;48.740;9.106;2024-01-07T08:30:16;2.30;99.90
4487;DHT22;2256;48.740;9.106;2024-01-07T08:32:43;2.30;99.90
4487;DHT22;2256;48.740;9.106;2024-01-07T08:35:10;2.20;99.90
4487;DHT22;2256;48.740;9.106;2024-01-07T08:37:43;2.30;99.90
4487;DHT22;2256;48.740;9.106;2024-01-07T08:40:11;2.40;99.90
4487;DHT22;2256;48.740;9.106;2024-01-07T08:42:40;2.40;99.90
4487;DHT22;2256;48.740;9.106;2024-01-07T08:45:08;2.30;99.90
4487;DHT22;2256;48.740;9.106;2024-01-07T08:47:36;2.20;99.90
4487;DHT22;2256;48.740;9.106;2024-01-07T08:50:03;2.30;99.90
4487;DHT22;2256;48.740;9.106;2024-01-07T08:52:30;2.30;99.90
4487;DHT22;2256;48.740;9.106;2024-01-07T08:55:02;2.20;99.90
4487;DHT22;2256;48.740;9.106;2024-01-07T08:57:31;2.20;99.90
4487;DHT22;2256;48.740;9.106;2024-01-07T08:59:59;2.20;99.90
4487;DHT22;2256;48.740;9.106;2024-01-07T09:02:26;2.10;99.90
4487;DHT22;2256;48.740;9.106;2024-01-07T09:04:53;2.20;99.90
4487;DHT22;2256;48.740;9.106;2024-01-07T09:07:19;2.20;99.90
4487;DHT22;2256;48.740;9.106;2024-01-07T09:09:48;2.20;99.90
4487;DHT22;2256;48.740;9.106;2024-01-07T09:12:15;2.20;99.90
4487;DHT22;2256;48.740;9.106;2024-01-07T09:14:42;2.20;99.90
4487;DHT22;2256;48.740;9.106;2024-01-07T09:17:11;2.20;99.90
4487;DHT22;2256;48.740;9.106;2024-01-07T09:19:38;2.10;99.90
4487;DHT22;2256;48.740;9.106;2024-01-07T09:22:05;2.10;99.90
4487;DHT22;2256;48.740;9.106;2024-01-07T09:24:32;2.10;99.90
4487;DHT22;2256;48.740;9.106;2024-01-07T09:26:59;2.10;99.90
4487;DHT22;2256;48.740;9.106;2024-01-07T09:29:25;2.10;99.90
4487;DHT22;2256;48.740;9.106;2024-01-07T09:31:53;2.00;99.90
4487;DHT22;2256;48.740;9.106;2024-01-07T09:34:21;1.90;99.90
4487;DHT22;2256;48.740;9.106;2024-01-07T09:36:48;2.00;99.90
4487;DHT22;2256;48.740;9.106;2024-01-07T09:39:14;2.10;99.90
4487;DHT22;2256;48.740;9.106;2024-01-07T09:41:41;2.20;99.90
4487;DHT22;2256;48.740;9.106;2024-01-07T09:44:09;2.20;99.90
4487;DHT22;2256;48.740;9.106;2024-01-07T09:46:37;2.30;99.90
4487;DHT22;2256;48.740;9.106;2024-01-07T09:49:06;2.40;99.90
4487;DHT22;2256;48.740;9.106;2024-01-07T09:51:35;2.30;99.90
4487;DHT22;2256;48.740;9.106;2024-01-07T09:54:03;2.30;99.90
4487;DHT22;2256;48.740;9.106;2024-01-07T09:56:38;2.30;99.90
4487;DHT22;2256;48.740;9.106;2024-01-07T09:59:08;2.20;99.90
4487;DHT22;2256;48.740;9.106;2024-01-07T10:01:35;2.20;99.90
4487;DHT22;2256;48.740;9.106;2024-01-07T10:04:03;2.30;99.90
4487;DHT22;2256;48.740;9.106;2024-01-07T10:06:30;2.40;99.90
4487;DHT22;2256;48.740;9.106;2024-01-07T10:08:58;2.40;99.90
4487;DHT22;2256;48.740;9.106;2024-01-07T10:11:25;2.30;99.90
4487;DHT22;2256;48.740;9.106;2024-01-07T10:13:53;2.30;99.90
4487;DHT22;2256;48.740;9.106;2024-01-07T10:16:20;2.20;99.90
4487;DHT22;2256;48.740;9.106;2024-01-07T10:18:47;2.20;99.90
4487;DHT22;2256;48.740;9.106;2024-01-07T10:21:13;2.10;99.90
4487;DHT22;2256;48.740;9.106;2024-01-07T10:23:40;2.20;99.90
4487;DHT22;2256;48.740;9.106;2024-01-07T10:26:09;2.20;99.90
4487;DHT22;2256;48.740;9.106;2024-01-07T10:28:36;2.20;99.90
4487;DHT22;2256;48.740;9.106;2024-01-07T10:31:06;2.20;99.90
4487;DHT22;2256;48.740;9.106;2024-01-07T10:33:32;2.20;99.90
4487;DHT22;2256;48.740;9.106;2024-01-07T10:36:02;2.10;99.90
4487;DHT22;2256;48.740;9.106;2024-01-07T10:38:31;2.00;99.90
4487;DHT22;2256;48.740;9.106;2024-01-07T10:40:59;2.10;99.90
4487;DHT22;2256;48.740;9.106;2024-01-07T10:43:30;2.00;99.90
4487;DHT22;2256;48.740;9.106;2024-01-07T10:46:00;2.00;99.90
4487;DHT22;2256;48.740;9.106;2024-01-07T10:48:31;2.00;99.90
4487;DHT22;2256;48.740;9.106;2024-01-07T10:50:59;2.00;99.90
4487;DHT22;2256;48.740;9.106;2024-01-07T10:53:28;1.90;99.90
4487;DHT22;2256;48.740;9.106;2024-01-07T10:56:03;1.80;99.90
4487;DHT22;2256;48.740;9.106;2024-01-07T10:58:32;1.90;99.90
4487;DHT22;2256;48.740;9.106;2024-01-07T11:01:00;1.80;99.90
4487;DHT22;2256;48.740;9.106;2024-01-07T11:03:43;1.80;99.90
4487;DHT22;2256;48.740;9.106;2024-01-07T11:06:19;1.80;99.90
4487;DHT22;2256;48.740;9.106;2024-01-07T11:08:54;2.00;99.90
4487;DHT22;2256;48.740;9.106;2024-01-07T11:11:26;1.80;99.90
4487;DHT22;2256;48.740;9.106;2024-01-07T11:13:57;1.70;99.90
4487;DHT22;2256;48.740;9.106;2024-01-07T11:16:44;1.80;99.90
4487;DHT22;2256;48.740;9.106;2024-01-07T11:19:13;1.70;99.90
4487;DHT22;2256;48.740;9.106;2024-01-07T11:21:40;1.70;99.90
4487;DHT22;2256;48.740;9.106;2024-01-07T11:24:07;1.70;99.90
4487;DHT22;2256;48.740;9.106;2024-01-07T11:26:34;1.50;99.90
4487;DHT22;2256;48.740;9.106;2024-01-07T11:29:02;1.60;99.90
4487;DHT22;2256;48.740;9.106;2024-01-07T11:31:43;1.60;99.90
4487;DHT22;2256;48.740;9.106;2024-01-07T11:34:41;1.70;99.90
4487;DHT22;2256;48.740;9.106;2024-01-07T11:37:10;1.70;99.90
4487;DHT22;2256;48.740;9.106;2024-01-07T11:39:37;1.70;99.90
4487;DHT22;2256;48.740;9.106;2024-01-07T11:42:04;1.70;99.90
4487;DHT22;2256;48.740;9.106;2024-01-07T11:44:34;1.70;99.90
4487;DHT22;2256;48.740;9.106;2024-01-07T11:47:02;1.70;99.90
4487;DHT22;2256;48.740;9.106;2024-01-07T11:49:29;1.90;99.90
4487;DHT22;2256;48.740;9.106;2024-01-07T11:51:56;1.90;99.90
4487;DHT22;2256;48.740;9.106;2024-01-07T11:54:23;1.80;99.90
4487;DHT22;2256;48.740;9.106;2024-01-07T11:56:50;1.90;99.90
4487;DHT22;2256;48.740;9.106;2024-01-07T11:59:17;1.80;99.90
4487;DHT22;2256;48.740;9.106;2024-01-07T12:01:45;1.80;99.90
4487;DHT22;2256;48.740;9.106;2024-01-07T12:04:11;1.80;99.90
4487;DHT22;2256;48.740;9.106;2024-01-07T12:06:38;1.80;99.90
4487;DHT22;2256;48.740;9.106;2024-01-07T12:09:05;1.70;99.90
4487;DHT22;2256;48.740;9.106;2024-01-07T12:11:32;1.60;99.90
4487;DHT22;2256;48.740;9.106;2024-01-07T12:13:59;1.50;99.90
4487;DHT22;2256;48.740;9.106;2024-01-07T12:16:26;1.60;99.90
4487;DHT22;2256;48.740;9.106;2024-01-07T12:18:55;1.60;99.90
4487;DHT22;2256;48.740;9.106;2024-01-07T12:21:21;1.50;99.90
4487;DHT22;2256;48.740;9.106;2024-01-07T12:23:49;1.50;99.90
4487;DHT22;2256;48.740;9.106;2024-01-07T12:26:17;1.50;99.90
4487;DHT22;2256;48.740;9.106;2024-01-07T12:28:45;1.50;99.90
4487;DHT22;2256;48.740;9.106;2024-01-07T12:31:18;1.40;99.90
4487;DHT22;2256;48.740;9.106;2024-01-07T12:33:46;1.40;99.90
4487;DHT22;2256;48.740;9.106;2024-01-07T12:36:14;1.50;99.90
4487;DHT22;2256;48.740;9.106;2024-01-07T12:38:41;1.50;99.90
4487;DHT22;2256;48.740;9.106;2024-01-07T12:41:08;1.40;99.90
4487;DHT22;2256;48.740;9.106;2024-01-07T12:43:36;1.50;99.90
4487;DHT22;2256;48.740;9.106;2024-01-07T12:46:03;1.50;99.90
4487;DHT22;2256;48.740;9.106;2024-01-07T12:48:31;1.40;99.90
4487;DHT22;2256;48.740;9.106;2024-01-07T12:50:58;1.50;99.90
4487;DHT22;2256;48.740;9.106;2024-01-07T12:53:26;1.50;99.90
4487;DHT22;2256;48.740;9.106;2024-01-07T12:55:53;1.50;99.90
4487;DHT22;2256;48.740;9.106;2024-01-07T12:58:19;1.60;99.90
4487;DHT22;2256;48.740;9.106;2024-01-07T13:00:47;1.40;99.90
4487;DHT22;2256;48.740;9.106;2024-01-07T13:03:14;1.30;99.90
4487;DHT22;2256;48.740;9.106;2024-01-07T13:05:44;1.30;99.90
4487;DHT22;2256;48.740;9.106;2024-01-07T13:08:12;1.30;99.90
4487;DHT22;2256;48.740;9.106;2024-01-07T13:10:41;1.10;99.90
4487;DHT22;2256;48.740;9.106;2024-01-07T13:13:07;1.10;99.90
4487;DHT22;2256;48.740;9.106;2024-01-07T13:15:35;1.10;99.90
4487;DHT22;2256;48.740;9.106;2024-01-07T13:18:02;1.10;99.90
4487;DHT22;2256;48.740;9.106;2024-01-07T13:20:29;1.10;99.90
4487;DHT22;2256;48.740;9.106;2024-01-07T13:22:56;0.90;99.90
4487;DHT22;2256;48.740;9.106;2024-01-07T13:25:22;0.90;99.90
4487;DHT22;2256;48.740;9.106;2024-01-07T13:27:50;1.00;99.90
4487;DHT22;2256;48.740;9.106;2024-01-07T13:30:18;0.90;99.90
4487;DHT22;2256;48.740;9.106;2024-01-07T13:32:44;0.90;99.90
4487;DHT22;2256;48.740;9.106;2024-01-07T13:35:11;0.90;99.90
4487;DHT22;2256;48.740;9.106;2024-01-07T13:37:38;0.80;99.90
4487;DHT22;2256;48.740;9.106;2024-01-07T13:40:08;0.80;99.90
4487;DHT22;2256;48.740;9.106;2024-01-07T13:42:36;0.90;99.90
4487;DHT22;2256;48.740;9.106;2024-01-07T13:45:05;0.90;99.90
4487;DHT22;2256;48.740;9.106;2024-01-07T13:47:32;0.90;99.90
4487;DHT22;2256;48.740;9.106;2024-01-07T13:50:01;0.70;99.90
4487;DHT22;2256;48.740;9.106;2024-01-07T13:52:29;0.60;99.90
4487;DHT22;2256;48.740;9.106;2024-01-07T13:54:56;0.60;99.90
4487;DHT22;2256;48.740;9.106;2024-01-07T13:57:22;0.60;99.90
4487;DHT22;2256;48.740;9.106;2024-01-07T13:59:50;0.50;99.90
4487;DHT22;2256;48.740;9.106;2024-01-07T14:02:18;0.40;99.90
4487;DHT22;2256;48.740;9.106;2024-01-07T14:04:45;0.40;99.90
4487;DHT22;2256;48.740;9.106;2024-01-07T14:07:12;0.40;99.90
4487;DHT22;2256;48.740;9.106;2024-01-07T14:09:38;0.40;99.90
4487;DHT22;2256;48.740;9.106;2024-01-07T14:12:05;0.40;99.90
4487;DHT22;2256;48.740;9.106;2024-01-07T14:14:32;0.40;99.90
4487;DHT22;2256;48.740;9.106;2024-01-07T14:16:59;0.40;99.90
4487;DHT22;2256;48.740;9.106;2024-01-07T14:19:27;0.40;99.90
4487;DHT22;2256;48.740;9.106;2024-01-07T14:21:54;0.30;99.90
4487;DHT22;2256;48.740;9.106;2024-01-07T14:24:21;0.30;99.90
4487;DHT22;2256;48.740;9.106;2024-01-07T14:26:48;0.30;99.90
4487;DHT22;2256;48.740;9.106;2024-01-07T14:29:15;0.30;99.90
4487;DHT22;2256;48.740;9.106;2024-01-07T14:31:41;0.30;99.90
4487;DHT22;2256;48.740;9.106;2024-01-07T14:34:08;0.30;99.90
4487;DHT22;2256;48.740;9.106;2024-01-07T14:36:39;0.20;99.90
4487;DHT22;2256;48.740;9.106;2024-01-07T14:39:06;0.10;99.90
4487;DHT22;2256;48.740;9.106;2024-01-07T14:41:34;0.10;99.90
4487;DHT22;2256;48.740;9.106;2024-01-07T14:44:01;0.00;99.90
4487;DHT22;2256;48.740;9.106;2024-01-07T14:46:28;0.00;99.90
4487;DHT22;2256;48.740;9.106;2024-01-07T14:48:55;0.10;99.90
4487;DHT22;2256;48.740;9.106;2024-01-07T14:51:22;0.10;99.90
4487;DHT22;2256;48.740;9.106;2024-01-07T14:53:50;0.10;99.90
4487;DHT22;2256;48.740;9.106;2024-01-07T14:56:17;0.20;99.90
4487;DHT22;2256;48.740;9.106;2024-01-07T14:58:44;0.00;99.90
4487;DHT22;2256;48.740;9.106;2024-01-07T15:01:11;-0.10;99.90
4487;DHT22;2256;48.740;9.106;2024-01-07T15:03:37;-0.20;99.90
4487;DHT22;2256;48.740;9.106;2024-01-07T15:06:04;-0.20;99.90
4487;DHT22;2256;48.740;9.106;2024-01-07T15:08:31;-0.20;99.90
4487;DHT22;2256;48.740;9.106;2024-01-07T15:10:59;-0.20;99.90
4487;DHT22;2256;48.740;9.106;2024-01-07T15:13:26;-0.20;99.90
4487;DHT22;2256;48.740;9.106;2024-01-07T15:15:54;-0.30;99.90
4487;DHT22;2256;48.740;9.106;2024-01-07T15:18:21;-0.40;99.90
4487;DHT22;2256;48.740;9.106;2024-01-07T15:20:48;-0.40;99.90
4487;DHT22;2256;48.740;9.106;2024-01-07T15:23:15;-0.40;99.90
4487;DHT22;2256;48.740;9.106;2024-01-07T15:25:41;-0.30;99.90
4487;DHT22;2256;48.740;9.106;2024-01-07T15:28:09;-0.40;99.90
4487;DHT22;2256;48.740;9.106;2024-01-07T15:30:36;-0.30;99.90
4487;DHT22;2256;48.740;9.106;2024-01-07T15:33:03;-0.30;99.90
4487;DHT22;2256;48.740;9.106;2024-01-07T15:35:30;-0.30;99.90
4487;DHT22;2256;48.740;9.106;2024-01-07T15:37:57;-0.30;99.90
4487;DHT22;2256;48.740;9.106;2024-01-07T15:40:24;-0.30;99.90
4487;DHT22;2256;48.740;9.106;2024-01-07T15:42:52;-0.20;99.90
4487;DHT22;2256;48.740;9.106;2024-01-07T15:45:20;-0.30;99.90
4487;DHT22;2256;48.740;9.106;2024-01-07T15:47:47;-0.20;99.90
4487;DHT22;2256;48.740;9.106;2024-01-07T15:50:14;-0.20;99.90
4487;DHT22;2256;48.740;9.106;2024-01-07T15:52:41;-0.40;99.90
4487;DHT22;2256;48.740;9.106;2024-01-07T15:55:11;-0.50;99.90
4487;DHT22;2256;48.740;9.106;2024-01-07T15:57:38;-0.60;99.90
4487;DHT22;2256;48.740;9.106;2024-01-07T16:00:07;-0.60;99.90
4487;DHT22;2256;48.740;9.106;2024-01-07T16:02:35;-0.70;99.90
4487;DHT22;2256;48.740;9.106;2024-01-07T16:05:02;-0.70;99.90
4487;DHT22;2256;48.740;9.106;2024-01-07T16:07:29;-0.70;99.90
4487;DHT22;2256;48.740;9.106;2024-01-07T16:09:56;-0.80;99.90
4487;DHT22;2256;48.740;9.106;2024-01-07T16:12:23;-0.80;99.90
4487;DHT22;2256;48.740;9.106;2024-01-07T16:14:50;-0.70;99.90
4487;DHT22;2256;48.740;9.106;2024-01-07T16:17:16;-0.70;99.90
4487;DHT22;2256;48.740;9.106;2024-01-07T16:19:44;-0.80;99.90